sensor_id;sensor_type;location;lat;lon;timestamp;P1;durP1;ratioP1;P2;durP2;ratioP2
4021;SDS011;2025;48.260;16.432;2023-05-07T00:02:07;8.52;;;2.50;;
4021;SDS011;2025;48.260;16.432;2023-05-07T00:04:34;7.75;;;2.30;;
4021;SDS011;2025;48.260;16.432;2023-05-07T00:07:04;7.10;;;2.42;;
4021;SDS011;2025;48.260;16.432;2023-05-07T00:09:30;6.82;;;2.50;;
4021;SDS011;2025;48.260;16.432;2023-05-07T00:11:57;6.93;;;2.58;;
4021;SDS011;2025;48.260;16.432;2023-05-07T00:14:24;5.68;;;2.10;;
4021;SDS011;2025;48.260;16.432;2023-05-07T00:16:51;7.97;;;2.45;;
4021;SDS011;2025;48.260;16.432;2023-05-07T00:19:20;8.30;;;2.70;;
4021;SDS011;2025;48.260;16.432;2023-05-07T00:21:46;6.70;;;2.20;;
4021;SDS011;2025;48.260;16.432;2023-05-07T00:24:13;6.97;;;2.45;;
4021;SDS011;2025;48.260;16.432;2023-05-07T00:26:40;5.18;;;1.98;;
4021;SDS011;2025;48.260;16.432;2023-05-07T00:29:07;6.40;;;2.40;;
4021;SDS011;2025;48.260;16.432;2023-05-07T00:31:34;7.57;;;1.95;;
4021;SDS011;2025;48.260;16.432;2023-05-07T00:34:01;7.88;;;2.35;;
4021;SDS011;2025;48.260;16.432;2023-05-07T00:36:30;7.00;;;2.40;;
4021;SDS011;2025;48.260;16.432;2023-05-07T00:38:56;7.85;;;3.03;;
4021;SDS011;2025;48.260;16.432;2023-05-07T00:41:27;6.25;;;2.45;;
4021;SDS011;2025;48.260;16.432;2023-05-07T00:43:54;7.43;;;2.88;;
4021;SDS011;2025;48.260;16.432;2023-05-07T00:46:21;7.07;;;3.95;;
4021;SDS011;2025;48.260;16.432;2023-05-07T00:48:48;6.25;;;2.45;;
4021;SDS011;2025;48.260;16.432;2023-05-07T00:51:17;7.30;;;2.45;;
4021;SDS011;2025;48.260;16.432;2023-05-07T00:53:45;7.45;;;2.53;;
4021;SDS011;2025;48.260;16.432;2023-05-07T00:56:13;6.90;;;2.25;;
4021;SDS011;2025;48.260;16.432;2023-05-07T00:58:40;6.30;;;1.83;;
4021;SDS011;2025;48.260;16.432;2023-05-07T01:01:08;5.05;;;1.90;;
4021;SDS011;2025;48.260;16.432;2023-05-07T01:03:34;6.25;;;2.10;;
4021;SDS011;2025;48.260;16.432;2023-05-07T01:06:01;7.10;;;2.17;;
4021;SDS011;2025;48.260;16.432;2023-05-07T01:08:29;7.68;;;2.30;;
4021;SDS011;2025;48.260;16.432;2023-05-07T01:10:59;6.85;;;2.08;;
4021;SDS011;2025;48.260;16.432;2023-05-07T01:13:28;6.88;;;2.13;;
4021;SDS011;2025;48.260;16.432;2023-05-07T01:15:56;7.05;;;2.17;;
4021;SDS011;2025;48.260;16.432;2023-05-07T01:18:23;6.57;;;2.13;;
4021;SDS011;2025;48.260;16.432;2023-05-07T01:20:51;5.50;;;2.17;;
4021;SDS011;2025;48.260;16.432;2023-05-07T01:23:19;6.30;;;3.55;;
4021;SDS011;2025;48.260;16.432;2023-05-07T01:25:50;6.18;;;2.05;;
4021;SDS011;2025;48.260;16.432;2023-05-07T01:28:18;11.25;;;2.28;;
4021;SDS011;2025;48.260;16.432;2023-05-07T01:30:45;6.10;;;2.08;;
4021;SDS011;2025;48.260;16.432;2023-05-07T01:33:15;6.88;;;3.10;;
4021;SDS011;2025;48.260;16.432;2023-05-07T01:35:47;7.00;;;1.80;;
4021;SDS011;2025;48.260;16.432;2023-05-07T01:38:16;7.18;;;2.20;;
4021;SDS011;2025;48.260;16.432;2023-05-07T01:40:45;5.03;;;1.80;;
4021;SDS011;2025;48.260;16.432;2023-05-07T01:43:13;7.15;;;2.38;;
4021;SDS011;2025;48.260;16.432;2023-05-07T01:45:40;8.77;;;2.35;;
4021;SDS011;2025;48.260;16.432;2023-05-07T01:48:10;6.65;;;2.05;;
4021;SDS011;2025;48.260;16.432;2023-05-07T01:50:37;8.15;;;4.35;;
4021;SDS011;2025;48.260;16.432;2023-05-07T01:53:05;6.65;;;2.08;;
4021;SDS011;2025;48.260;16.432;2023-05-07T01:55:32;6.85;;;3.67;;
4021;SDS011;2025;48.260;16.432;2023-05-07T01:58:01;7.85;;;2.75;;
4021;SDS011;2025;48.260;16.432;2023-05-07T02:00:27;9.18;;;2.95;;
4021;SDS011;2025;48.260;16.432;2023-05-07T02:02:55;5.53;;;1.95;;
4021;SDS011;2025;48.260;16.432;2023-05-07T02:05:22;6.05;;;2.35;;
4021;SDS011;2025;48.260;16.432;2023-05-07T02:07:49;9.32;;;2.83;;
4021;SDS011;2025;48.260;16.432;2023-05-07T02:10:16;6.97;;;3.60;;
4021;SDS011;2025;48.260;16.432;2023-05-07T02:12:42;7.10;;;2.20;;
4021;SDS011;2025;48.260;16.432;2023-05-07T02:15:11;6.30;;;2.45;;
4021;SDS011;2025;48.260;16.432;2023-05-07T02:17:39;6.28;;;2.55;;
4021;SDS011;2025;48.260;16.432;2023-05-07T02:20:26;6.20;;;2.55;;
4021;SDS011;2025;48.260;16.432;2023-05-07T02:22:53;8.32;;;2.60;;
4021;SDS011;2025;48.260;16.432;2023-05-07T02:25:20;8.43;;;3.42;;
4021;SDS011;2025;48.260;16.432;2023-05-07T02:27:47;7.82;;;2.97;;
4021;SDS011;2025;48.260;16.432;2023-05-07T02:30:15;7.28;;;2.80;;
4021;SDS011;2025;48.260;16.432;2023-05-07T02:32:42;10.40;;;4.15;;
4021;SDS011;2025;48.260;16.432;2023-05-07T02:35:09;8.55;;;3.78;;
4021;SDS011;2025;48.260;16.432;2023-05-07T02:37:36;9.82;;;3.72;;
4021;SDS011;2025;48.260;16.432;2023-05-07T02:40:04;10.38;;;3.63;;
4021;SDS011;2025;48.260;16.432;2023-05-07T02:42:32;9.18;;;4.00;;
4021;SDS011;2025;48.260;16.432;2023-05-07T02:44:59;12.27;;;5.22;;
4021;SDS011;2025;48.260;16.432;2023-05-07T02:47:27;10.38;;;4.47;;
4021;SDS011;2025;48.260;16.432;2023-05-07T02:49:54;9.88;;;4.20;;
4021;SDS011;2025;48.260;16.432;2023-05-07T02:52:21;12.70;;;4.50;;
4021;SDS011;2025;48.260;16.432;2023-05-07T02:54:48;9.07;;;3.65;;
4021;SDS011;2025;48.260;16.432;2023-05-07T02:57:15;9.65;;;4.38;;
4021;SDS011;2025;48.260;16.432;2023-05-07T02:59:42;12.50;;;4.70;;
4021;SDS011;2025;48.260;16.432;2023-05-07T03:02:09;10.15;;;4.55;;
4021;SDS011;2025;48.260;16.432;2023-05-07T03:04:40;10.82;;;4.95;;
4021;SDS011;2025;48.260;16.432;2023-05-07T03:07:07;10.02;;;4.43;;
4021;SDS011;2025;48.260;16.432;2023-05-07T03:09:34;11.88;;;5.68;;
4021;SDS011;2025;48.260;16.432;2023-05-07T03:12:01;11.63;;;5.38;;
4021;SDS011;2025;48.260;16.432;2023-05-07T03:14:28;11.85;;;5.30;;
4021;SDS011;2025;48.260;16.432;2023-05-07T03:16:55;13.02;;;5.65;;
4021;SDS011;2025;48.260;16.432;2023-05-07T03:19:22;11.77;;;5.97;;
4021;SDS011;2025;48.260;16.432;2023-05-07T03:21:50;11.88;;;5.85;;
4021;SDS011;2025;48.260;16.432;2023-05-07T03:24:17;13.30;;;6.25;;
4021;SDS011;2025;48.260;16.432;2023-05-07T03:26:44;14.63;;;6.65;;
4021;SDS011;2025;48.260;16.432;2023-05-07T03:29:11;13.82;;;6.15;;
4021;SDS011;2025;48.260;16.432;2023-05-07T03:31:38;14.82;;;9.65;;
4021;SDS011;2025;48.260;16.432;2023-05-07T03:34:05;14.02;;;7.00;;
4021;SDS011;2025;48.260;16.432;2023-05-07T03:36:32;16.55;;;7.47;;
4021;SDS011;2025;48.260;16.432;2023-05-07T03:39:00;17.33;;;6.85;;
4021;SDS011;2025;48.260;16.432;2023-05-07T03:41:27;17.67;;;10.23;;
4021;SDS011;2025;48.260;16.432;2023-05-07T03:43:54;17.08;;;10.07;;
4021;SDS011;2025;48.260;16.432;2023-05-07T03:46:21;18.88;;;8.55;;
4021;SDS011;2025;48.260;16.432;2023-05-07T03:48:51;17.67;;;8.93;;
4021;SDS011;2025;48.260;16.432;2023-05-07T03:51:18;17.17;;;9.52;;
4021;SDS011;2025;48.260;16.432;2023-05-07T03:53:44;21.13;;;9.40;;
4021;SDS011;2025;48.260;16.432;2023-05-07T03:56:13;18.60;;;9.18;;
4021;SDS011;2025;48.260;16.432;2023-05-07T03:58:40;19.27;;;9.00;;
4021;SDS011;2025;48.260;16.432;2023-05-07T04:01:07;20.35;;;9.57;;
4021;SDS011;2025;48.260;16.432;2023-05-07T04:03:34;20.63;;;9.00;;
4021;SDS011;2025;48.260;16.432;2023-05-07T04:06:01;21.10;;;9.95;;
4021;SDS011;2025;48.260;16.432;2023-05-07T04:08:27;19.98;;;10.30;;
4021;SDS011;2025;48.260;16.432;2023-05-07T04:10:55;21.63;;;11.00;;
4021;SDS011;2025;48.260;16.432;2023-05-07T04:13:23;19.63;;;9.80;;
4021;SDS011;2025;48.260;16.432;2023-05-07T04:15:50;18.45;;;8.65;;
4021;SDS011;2025;48.260;16.432;2023-05-07T04:18:17;20.98;;;9.75;;
4021;SDS011;2025;48.260;16.432;2023-05-07T04:20:45;22.02;;;10.30;;
4021;SDS011;2025;48.260;16.432;2023-05-07T04:23:11;18.48;;;9.90;;
4021;SDS011;2025;48.260;16.432;2023-05-07T04:25:38;20.27;;;10.35;;
4021;SDS011;2025;48.260;16.432;2023-05-07T04:28:05;21.42;;;9.57;;
4021;SDS011;2025;48.260;16.432;2023-05-07T04:30:34;22.45;;;11.38;;
4021;SDS011;2025;48.260;16.432;2023-05-07T04:33:01;22.27;;;11.00;;
4021;SDS011;2025;48.260;16.432;2023-05-07T04:35:28;21.23;;;10.98;;
4021;SDS011;2025;48.260;16.432;2023-05-07T04:37:54;20.25;;;10.18;;
4021;SDS011;2025;48.260;16.432;2023-05-07T04:40:21;19.50;;;9.57;;
4021;SDS011;2025;48.260;16.432;2023-05-07T04:42:48;24.35;;;11.38;;
4021;SDS011;2025;48.260;16.432;2023-05-07T04:45:15;21.58;;;10.98;;
4021;SDS011;2025;48.260;16.432;2023-05-07T04:47:43;22.85;;;11.93;;
4021;SDS011;2025;48.260;16.432;2023-05-07T04:50:10;24.63;;;11.70;;
4021;SDS011;2025;48.260;16.432;2023-05-07T04:52:37;22.15;;;11.52;;
4021;SDS011;2025;48.260;16.432;2023-05-07T04:55:04;24.25;;;11.93;;
4021;SDS011;2025;48.260;16.432;2023-05-07T04:57:32;25.73;;;12.07;;
4021;SDS011;2025;48.260;16.432;2023-05-07T04:59:59;25.92;;;13.13;;
4021;SDS011;2025;48.260;16.432;2023-05-07T05:02:26;25.88;;;11.80;;
4021;SDS011;2025;48.260;16.432;2023-05-07T05:04:54;24.95;;;11.93;;
4021;SDS011;2025;48.260;16.432;2023-05-07T05:07:21;23.77;;;13.00;;
4021;SDS011;2025;48.260;16.432;2023-05-07T05:09:48;24.50;;;12.90;;
4021;SDS011;2025;48.260;16.432;2023-05-07T05:12:15;29.05;;;12.95;;
4021;SDS011;2025;48.260;16.432;2023-05-07T05:14:42;22.70;;;12.35;;
4021;SDS011;2025;48.260;16.432;2023-05-07T05:17:09;28.48;;;12.55;;
4021;SDS011;2025;48.260;16.432;2023-05-07T05:19:36;25.67;;;12.70;;
4021;SDS011;2025;48.260;16.432;2023-05-07T05:22:04;26.23;;;13.13;;
4021;SDS011;2025;48.260;16.432;2023-05-07T05:24:31;27.17;;;13.02;;
4021;SDS011;2025;48.260;16.432;2023-05-07T05:26:58;24.30;;;11.32;;
4021;SDS011;2025;48.260;16.432;2023-05-07T05:29:26;24.92;;;12.88;;
4021;SDS011;2025;48.260;16.432;2023-05-07T05:31:53;25.38;;;13.02;;
4021;SDS011;2025;48.260;16.432;2023-05-07T05:34:20;27.42;;;13.98;;
4021;SDS011;2025;48.260;16.432;2023-05-07T05:36:47;27.48;;;13.30;;
4021;SDS011;2025;48.260;16.432;2023-05-07T05:39:15;25.30;;;12.85;;
4021;SDS011;2025;48.260;16.432;2023-05-07T05:41:43;25.60;;;13.05;;
4021;SDS011;2025;48.260;16.432;2023-05-07T05:44:10;23.58;;;12.10;;
4021;SDS011;2025;48.260;16.432;2023-05-07T05:46:37;22.55;;;12.50;;
4021;SDS011;2025;48.260;16.432;2023-05-07T05:49:03;24.50;;;13.05;;
4021;SDS011;2025;48.260;16.432;2023-05-07T05:51:30;22.40;;;12.13;;
4021;SDS011;2025;48.260;16.432;2023-05-07T05:53:57;25.17;;;12.15;;
4021;SDS011;2025;48.260;16.432;2023-05-07T05:56:26;24.02;;;12.25;;
4021;SDS011;2025;48.260;16.432;2023-05-07T05:58:53;25.30;;;14.32;;
4021;SDS011;2025;48.260;16.432;2023-05-07T06:01:19;24.30;;;12.27;;
4021;SDS011;2025;48.260;16.432;2023-05-07T06:03:46;24.02;;;12.23;;
4021;SDS011;2025;48.260;16.432;2023-05-07T06:06:13;23.95;;;12.43;;
4021;SDS011;2025;48.260;16.432;2023-05-07T06:08:41;23.88;;;12.35;;
4021;SDS011;2025;48.260;16.432;2023-05-07T06:11:08;23.83;;;13.05;;
4021;SDS011;2025;48.260;16.432;2023-05-07T06:13:40;24.77;;;13.23;;
4021;SDS011;2025;48.260;16.432;2023-05-07T06:16:11;22.48;;;11.98;;
4021;SDS011;2025;48.260;16.432;2023-05-07T06:18:38;23.58;;;13.70;;
4021;SDS011;2025;48.260;16.432;2023-05-07T06:21:05;24.38;;;12.68;;
4021;SDS011;2025;48.260;16.432;2023-05-07T06:23:32;25.55;;;12.43;;
4021;SDS011;2025;48.260;16.432;2023-05-07T06:25:59;22.80;;;11.80;;
4021;SDS011;2025;48.260;16.432;2023-05-07T06:28:25;22.45;;;12.20;;
4021;SDS011;2025;48.260;16.432;2023-05-07T06:30:54;23.15;;;12.02;;
4021;SDS011;2025;48.260;16.432;2023-05-07T06:33:21;20.90;;;11.55;;
4021;SDS011;2025;48.260;16.432;2023-05-07T06:35:48;24.20;;;11.57;;
4021;SDS011;2025;48.260;16.432;2023-05-07T06:38:15;22.08;;;12.15;;
4021;SDS011;2025;48.260;16.432;2023-05-07T06:40:42;23.40;;;11.00;;
4021;SDS011;2025;48.260;16.432;2023-05-07T06:43:09;21.67;;;11.38;;
4021;SDS011;2025;48.260;16.432;2023-05-07T06:45:36;21.63;;;11.85;;
4021;SDS011;2025;48.260;16.432;2023-05-07T06:48:05;24.27;;;14.70;;
4021;SDS011;2025;48.260;16.432;2023-05-07T06:50:32;23.55;;;11.98;;
4021;SDS011;2025;48.260;16.432;2023-05-07T06:52:58;25.05;;;12.30;;
4021;SDS011;2025;48.260;16.432;2023-05-07T06:55:25;23.58;;;11.52;;
4021;SDS011;2025;48.260;16.432;2023-05-07T06:57:52;20.88;;;11.80;;
4021;SDS011;2025;48.260;16.432;2023-05-07T07:00:19;23.10;;;11.73;;
4021;SDS011;2025;48.260;16.432;2023-05-07T07:02:46;20.73;;;10.95;;
4021;SDS011;2025;48.260;16.432;2023-05-07T07:05:15;21.60;;;11.38;;
4021;SDS011;2025;48.260;16.432;2023-05-07T07:07:42;21.90;;;11.18;;
4021;SDS011;2025;48.260;16.432;2023-05-07T07:10:09;22.98;;;12.27;;
4021;SDS011;2025;48.260;16.432;2023-05-07T07:12:36;23.10;;;12.25;;
4021;SDS011;2025;48.260;16.432;2023-05-07T07:15:03;23.27;;;11.57;;
4021;SDS011;2025;48.260;16.432;2023-05-07T07:17:31;20.92;;;10.85;;
4021;SDS011;2025;48.260;16.432;2023-05-07T07:19:58;18.63;;;10.15;;
4021;SDS011;2025;48.260;16.432;2023-05-07T07:22:26;17.50;;;9.52;;
4021;SDS011;2025;48.260;16.432;2023-05-07T07:24:53;20.90;;;12.18;;
4021;SDS011;2025;48.260;16.432;2023-05-07T07:27:20;18.73;;;9.75;;
4021;SDS011;2025;48.260;16.432;2023-05-07T07:29:47;19.30;;;10.00;;
4021;SDS011;2025;48.260;16.432;2023-05-07T07:32:14;16.77;;;9.55;;
4021;SDS011;2025;48.260;16.432;2023-05-07T07:34:41;18.25;;;9.20;;
4021;SDS011;2025;48.260;16.432;2023-05-07T07:39:49;16.55;;;8.60;;
4021;SDS011;2025;48.260;16.432;2023-05-07T07:42:16;17.83;;;8.85;;
4021;SDS011;2025;48.260;16.432;2023-05-07T07:44:43;17.52;;;8.98;;
4021;SDS011;2025;48.260;16.432;2023-05-07T07:47:10;17.17;;;8.25;;
4021;SDS011;2025;48.260;16.432;2023-05-07T07:49:37;15.27;;;8.30;;
4021;SDS011;2025;48.260;16.432;2023-05-07T07:52:04;16.83;;;8.50;;
4021;SDS011;2025;48.260;16.432;2023-05-07T07:54:31;19.38;;;9.40;;
4021;SDS011;2025;48.260;16.432;2023-05-07T07:56:59;17.90;;;8.60;;
4021;SDS011;2025;48.260;16.432;2023-05-07T07:59:26;17.98;;;8.65;;
4021;SDS011;2025;48.260;16.432;2023-05-07T08:01:53;15.85;;;8.85;;
4021;SDS011;2025;48.260;16.432;2023-05-07T08:04:21;15.30;;;7.82;;
4021;SDS011;2025;48.260;16.432;2023-05-07T08:06:48;16.63;;;8.45;;
4021;SDS011;2025;48.260;16.432;2023-05-07T08:09:15;16.63;;;10.43;;
4021;SDS011;2025;48.260;16.432;2023-05-07T08:11:42;15.18;;;7.80;;
4021;SDS011;2025;48.260;16.432;2023-05-07T08:14:11;16.33;;;7.45;;
4021;SDS011;2025;48.260;16.432;2023-05-07T08:16:38;15.50;;;7.82;;
4021;SDS011;2025;48.260;16.432;2023-05-07T08:19:05;15.73;;;7.05;;
4021;SDS011;2025;48.260;16.432;2023-05-07T08:21:32;17.33;;;7.55;;
4021;SDS011;2025;48.260;16.432;2023-05-07T08:23:59;15.02;;;7.40;;
4021;SDS011;2025;48.260;16.432;2023-05-07T08:26:26;14.02;;;7.05;;
4021;SDS011;2025;48.260;16.432;2023-05-07T08:28:53;13.98;;;6.80;;
4021;SDS011;2025;48.260;16.432;2023-05-07T08:31:21;15.10;;;7.25;;
4021;SDS011;2025;48.260;16.432;2023-05-07T08:33:48;14.88;;;6.78;;
4021;SDS011;2025;48.260;16.432;2023-05-07T08:36:16;16.27;;;7.15;;
4021;SDS011;2025;48.260;16.432;2023-05-07T08:38:44;16.52;;;6.90;;
4021;SDS011;2025;48.260;16.432;2023-05-07T08:41:11;14.68;;;7.20;;
4021;SDS011;2025;48.260;16.432;2023-05-07T08:43:38;15.48;;;7.32;;
4021;SDS011;2025;48.260;16.432;2023-05-07T08:46:08;16.08;;;7.68;;
4021;SDS011;2025;48.260;16.432;2023-05-07T08:48:38;14.30;;;7.68;;
4021;SDS011;2025;48.260;16.432;2023-05-07T08:51:05;15.13;;;7.45;;
4021;SDS011;2025;48.260;16.432;2023-05-07T08:53:32;18.00;;;8.07;;
4021;SDS011;2025;48.260;16.432;2023-05-07T08:55:59;14.63;;;7.10;;
4021;SDS011;2025;48.260;16.432;2023-05-07T08:58:27;15.23;;;7.25;;
4021;SDS011;2025;48.260;16.432;2023-05-07T09:00:54;16.70;;;8.55;;
4021;SDS011;2025;48.260;16.432;2023-05-07T09:03:21;14.23;;;8.07;;
4021;SDS011;2025;48.260;16.432;2023-05-07T09:05:49;14.63;;;7.20;;
4021;SDS011;2025;48.260;16.432;2023-05-07T09:08:16;16.52;;;7.88;;
4021;SDS011;2025;48.260;16.432;2023-05-07T09:10:43;16.20;;;7.88;;
4021;SDS011;2025;48.260;16.432;2023-05-07T09:13:11;15.40;;;8.20;;
4021;SDS011;2025;48.260;16.432;2023-05-07T09:15:39;15.13;;;8.13;;
4021;SDS011;2025;48.260;16.432;2023-05-07T09:18:06;13.05;;;7.15;;
4021;SDS011;2025;48.260;16.432;2023-05-07T09:20:33;13.23;;;6.95;;
4021;SDS011;2025;48.260;16.432;2023-05-07T09:23:02;14.07;;;7.35;;
4021;SDS011;2025;48.260;16.432;2023-05-07T09:25:29;14.40;;;8.25;;
4021;SDS011;2025;48.260;16.432;2023-05-07T09:27:58;12.82;;;6.90;;
4021;SDS011;2025;48.260;16.432;2023-05-07T09:30:27;14.77;;;7.50;;
4021;SDS011;2025;48.260;16.432;2023-05-07T09:32:54;15.63;;;8.38;;
4021;SDS011;2025;48.260;16.432;2023-05-07T09:35:21;12.95;;;7.20;;
4021;SDS011;2025;48.260;16.432;2023-05-07T09:37:49;11.90;;;6.22;;
4021;SDS011;2025;48.260;16.432;2023-05-07T09:40:24;12.80;;;7.13;;
4021;SDS011;2025;48.260;16.432;2023-05-07T09:42:52;12.52;;;7.32;;
4021;SDS011;2025;48.260;16.432;2023-05-07T09:45:22;12.98;;;6.13;;
4021;SDS011;2025;48.260;16.432;2023-05-07T09:47:53;12.75;;;6.45;;
4021;SDS011;2025;48.260;16.432;2023-05-07T09:50:22;12.40;;;6.65;;
4021;SDS011;2025;48.260;16.432;2023-05-07T09:52:54;11.07;;;7.05;;
4021;SDS011;2025;48.260;16.432;2023-05-07T09:55:21;13.50;;;6.07;;
4021;SDS011;2025;48.260;16.432;2023-05-07T09:57:50;12.35;;;6.57;;
4021;SDS011;2025;48.260;16.432;2023-05-07T10:00:19;13.77;;;6.18;;
4021;SDS011;2025;48.260;16.432;2023-05-07T10:02:47;11.50;;;6.10;;
4021;SDS011;2025;48.260;16.432;2023-05-07T10:05:17;11.75;;;6.07;;
4021;SDS011;2025;48.260;16.432;2023-05-07T10:07:44;13.20;;;6.57;;
4021;SDS011;2025;48.260;16.432;2023-05-07T10:10:12;12.55;;;6.18;;
4021;SDS011;2025;48.260;16.432;2023-05-07T10:12:41;13.68;;;6.28;;
4021;SDS011;2025;48.260;16.432;2023-05-07T10:15:09;13.15;;;6.78;;
4021;SDS011;2025;48.260;16.432;2023-05-07T10:17:37;12.77;;;6.88;;
4021;SDS011;2025;48.260;16.432;2023-05-07T10:20:05;12.65;;;6.10;;
4021;SDS011;2025;48.260;16.432;2023-05-07T10:22:36;12.82;;;5.60;;
4021;SDS011;2025;48.260;16.432;2023-05-07T10:25:05;12.27;;;6.00;;
4021;SDS011;2025;48.260;16.432;2023-05-07T10:27:36;11.35;;;5.32;;
4021;SDS011;2025;48.260;16.432;2023-05-07T10:30:07;12.55;;;6.18;;
4021;SDS011;2025;48.260;16.432;2023-05-07T10:32:45;12.27;;;6.30;;
4021;SDS011;2025;48.260;16.432;2023-05-07T10:37:44;10.77;;;5.35;;
4021;SDS011;2025;48.260;16.432;2023-05-07T10:40:12;10.68;;;4.97;;
4021;SDS011;2025;48.260;16.432;2023-05-07T10:42:52;11.52;;;5.82;;
4021;SDS011;2025;48.260;16.432;2023-05-07T10:45:23;11.88;;;6.07;;
4021;SDS011;2025;48.260;16.432;2023-05-07T10:48:05;11.20;;;5.18;;
4021;SDS011;2025;48.260;16.432;2023-05-07T10:50:34;12.25;;;5.90;;
4021;SDS011;2025;48.260;16.432;2023-05-07T10:55:49;9.93;;;5.25;;
4021;SDS011;2025;48.260;16.432;2023-05-07T10:58:24;10.65;;;4.47;;
4021;SDS011;2025;48.260;16.432;2023-05-07T11:00:56;9.63;;;4.65;;
4021;SDS011;2025;48.260;16.432;2023-05-07T11:03:24;11.07;;;6.10;;
4021;SDS011;2025;48.260;16.432;2023-05-07T11:06:11;10.43;;;4.80;;
4021;SDS011;2025;48.260;16.432;2023-05-07T11:08:52;9.60;;;4.22;;
4021;SDS011;2025;48.260;16.432;2023-05-07T11:11:33;12.60;;;5.57;;
4021;SDS011;2025;48.260;16.432;2023-05-07T11:14:13;11.35;;;5.53;;
4021;SDS011;2025;48.260;16.432;2023-05-07T11:16:42;10.98;;;5.22;;
4021;SDS011;2025;48.260;16.432;2023-05-07T11:19:10;10.80;;;4.85;;
4021;SDS011;2025;48.260;16.432;2023-05-07T11:21:37;10.82;;;4.90;;
4021;SDS011;2025;48.260;16.432;2023-05-07T11:24:05;12.20;;;5.95;;
4021;SDS011;2025;48.260;16.432;2023-05-07T11:26:43;9.75;;;5.50;;
4021;SDS011;2025;48.260;16.432;2023-05-07T11:29:12;10.45;;;6.68;;
4021;SDS011;2025;48.260;16.432;2023-05-07T11:31:41;9.30;;;4.70;;
4021;SDS011;2025;48.260;16.432;2023-05-07T11:34:09;9.13;;;4.32;;
4021;SDS011;2025;48.260;16.432;2023-05-07T11:36:41;9.95;;;3.88;;
4021;SDS011;2025;48.260;16.432;2023-05-07T11:39:25;10.75;;;4.47;;
4021;SDS011;2025;48.260;16.432;2023-05-07T11:41:53;9.27;;;5.32;;
4021;SDS011;2025;48.260;16.432;2023-05-07T11:44:19;11.00;;;4.35;;
4021;SDS011;2025;48.260;16.432;2023-05-07T11:46:48;9.98;;;5.65;;
4021;SDS011;2025;48.260;16.432;2023-05-07T11:49:16;9.18;;;3.92;;
4021;SDS011;2025;48.260;16.432;2023-05-07T11:51:43;9.27;;;4.55;;
4021;SDS011;2025;48.260;16.432;2023-05-07T11:54:11;9.10;;;4.15;;
4021;SDS011;2025;48.260;16.432;2023-05-07T11:56:43;11.23;;;4.28;;
4021;SDS011;2025;48.260;16.432;2023-05-07T11:59:12;8.88;;;4.70;;
4021;SDS011;2025;48.260;16.432;2023-05-07T12:01:45;10.75;;;6.38;;
4021;SDS011;2025;48.260;16.432;2023-05-07T12:04:14;9.38;;;4.70;;
4021;SDS011;2025;48.260;16.432;2023-05-07T12:06:45;9.20;;;4.38;;
4021;SDS011;2025;48.260;16.432;2023-05-07T12:09:12;10.50;;;4.35;;
4021;SDS011;2025;48.260;16.432;2023-05-07T12:11:40;8.90;;;4.30;;
4021;SDS011;2025;48.260;16.432;2023-05-07T12:16:38;10.32;;;4.20;;
4021;SDS011;2025;48.260;16.432;2023-05-07T12:19:06;10.65;;;4.35;;
4021;SDS011;2025;48.260;16.432;2023-05-07T12:21:38;9.07;;;4.45;;
4021;SDS011;2025;48.260;16.432;2023-05-07T12:24:06;9.98;;;4.38;;
4021;SDS011;2025;48.260;16.432;2023-05-07T12:26:37;8.85;;;4.25;;
4021;SDS011;2025;48.260;16.432;2023-05-07T12:29:05;8.52;;;5.00;;
4021;SDS011;2025;48.260;16.432;2023-05-07T12:31:32;10.05;;;4.30;;
4021;SDS011;2025;48.260;16.432;2023-05-07T12:34:00;7.60;;;3.80;;
4021;SDS011;2025;48.260;16.432;2023-05-07T12:36:27;8.18;;;3.42;;
4021;SDS011;2025;48.260;16.432;2023-05-07T12:39:05;8.57;;;3.70;;
4021;SDS011;2025;48.260;16.432;2023-05-07T12:41:35;8.45;;;3.38;;
4021;SDS011;2025;48.260;16.432;2023-05-07T12:44:18;7.65;;;3.60;;
4021;SDS011;2025;48.260;16.432;2023-05-07T12:46:46;8.35;;;3.10;;
4021;SDS011;2025;48.260;16.432;2023-05-07T12:49:13;8.00;;;3.17;;
4021;SDS011;2025;48.260;16.432;2023-05-07T12:51:40;7.40;;;2.95;;
4021;SDS011;2025;48.260;16.432;2023-05-07T12:54:10;6.78;;;2.83;;
4021;SDS011;2025;48.260;16.432;2023-05-07T12:56:36;7.88;;;3.53;;
4021;SDS011;2025;48.260;16.432;2023-05-07T12:59:03;6.75;;;2.83;;
4021;SDS011;2025;48.260;16.432;2023-05-07T13:01:30;7.30;;;3.20;;
4021;SDS011;2025;48.260;16.432;2023-05-07T13:04:00;6.90;;;4.40;;
4021;SDS011;2025;48.260;16.432;2023-05-07T13:06:29;7.22;;;3.05;;
4021;SDS011;2025;48.260;16.432;2023-05-07T13:08:57;7.18;;;3.30;;
4021;SDS011;2025;48.260;16.432;2023-05-07T13:11:25;7.80;;;4.90;;
4021;SDS011;2025;48.260;16.432;2023-05-07T13:13:52;8.60;;;3.70;;
4021;SDS011;2025;48.260;16.432;2023-05-07T13:16:19;7.30;;;3.15;;
4021;SDS011;2025;48.260;16.432;2023-05-07T13:18:46;7.68;;;2.92;;
4021;SDS011;2025;48.260;16.432;2023-05-07T13:21:13;7.13;;;3.10;;
4021;SDS011;2025;48.260;16.432;2023-05-07T13:23:40;7.22;;;2.60;;
4021;SDS011;2025;48.260;16.432;2023-05-07T13:26:07;8.15;;;4.13;;
4021;SDS011;2025;48.260;16.432;2023-05-07T13:28:35;6.97;;;2.65;;
4021;SDS011;2025;48.260;16.432;2023-05-07T13:31:02;7.40;;;3.67;;
4021;SDS011;2025;48.260;16.432;2023-05-07T13:33:29;6.05;;;2.70;;
4021;SDS011;2025;48.260;16.432;2023-05-07T13:35:56;5.72;;;2.60;;
4021;SDS011;2025;48.260;16.432;2023-05-07T13:38:23;7.75;;;2.70;;
4021;SDS011;2025;48.260;16.432;2023-05-07T13:40:50;6.25;;;2.55;;
4021;SDS011;2025;48.260;16.432;2023-05-07T13:43:17;6.35;;;2.85;;
4021;SDS011;2025;48.260;16.432;2023-05-07T13:45:45;7.45;;;4.38;;
4021;SDS011;2025;48.260;16.432;2023-05-07T13:48:12;6.40;;;2.70;;
4021;SDS011;2025;48.260;16.432;2023-05-07T13:50:39;5.88;;;2.33;;
4021;SDS011;2025;48.260;16.432;2023-05-07T13:53:07;6.00;;;2.97;;
4021;SDS011;2025;48.260;16.432;2023-05-07T13:55:34;7.32;;;2.80;;
4021;SDS011;2025;48.260;16.432;2023-05-07T13:58:02;6.38;;;2.17;;
4021;SDS011;2025;48.260;16.432;2023-05-07T14:00:29;6.95;;;3.30;;
4021;SDS011;2025;48.260;16.432;2023-05-07T14:02:57;5.65;;;2.50;;
4021;SDS011;2025;48.260;16.432;2023-05-07T14:05:24;6.57;;;2.80;;
4021;SDS011;2025;48.260;16.432;2023-05-07T14:07:53;6.50;;;3.50;;
4021;SDS011;2025;48.260;16.432;2023-05-07T14:10:20;7.85;;;2.80;;
4021;SDS011;2025;48.260;16.432;2023-05-07T14:12:47;5.72;;;2.15;;
4021;SDS011;2025;48.260;16.432;2023-05-07T14:15:14;5.75;;;2.25;;
4021;SDS011;2025;48.260;16.432;2023-05-07T14:17:42;6.68;;;2.55;;
4021;SDS011;2025;48.260;16.432;2023-05-07T14:20:11;5.70;;;2.30;;
4021;SDS011;2025;48.260;16.432;2023-05-07T14:22:38;5.25;;;2.03;;
4021;SDS011;2025;48.260;16.432;2023-05-07T14:25:06;5.35;;;1.50;;
4021;SDS011;2025;48.260;16.432;2023-05-07T14:27:34;5.85;;;2.10;;
4021;SDS011;2025;48.260;16.432;2023-05-07T14:30:01;5.20;;;1.90;;
4021;SDS011;2025;48.260;16.432;2023-05-07T14:32:28;5.97;;;2.53;;
4021;SDS011;2025;48.260;16.432;2023-05-07T14:34:55;5.43;;;2.85;;
4021;SDS011;2025;48.260;16.432;2023-05-07T14:37:23;5.45;;;2.08;;
4021;SDS011;2025;48.260;16.432;2023-05-07T14:39:50;6.55;;;3.22;;
4021;SDS011;2025;48.260;16.432;2023-05-07T14:42:17;6.70;;;1.98;;
4021;SDS011;2025;48.260;16.432;2023-05-07T14:44:44;5.60;;;2.10;;
4021;SDS011;2025;48.260;16.432;2023-05-07T14:47:13;5.13;;;1.90;;
4021;SDS011;2025;48.260;16.432;2023-05-07T14:49:40;4.57;;;1.60;;
4021;SDS011;2025;48.260;16.432;2023-05-07T14:52:08;5.50;;;1.75;;
4021;SDS011;2025;48.260;16.432;2023-05-07T14:54:37;5.55;;;1.50;;
4021;SDS011;2025;48.260;16.432;2023-05-07T14:57:04;5.50;;;1.73;;
4021;SDS011;2025;48.260;16.432;2023-05-07T14:59:32;5.10;;;1.52;;
4021;SDS011;2025;48.260;16.432;2023-05-07T15:01:59;4.10;;;1.40;;
4021;SDS011;2025;48.260;16.432;2023-05-07T15:04:26;5.70;;;1.80;;
4021;SDS011;2025;48.260;16.432;2023-05-07T15:06:53;5.45;;;1.77;;